Marianne — VRFM5 — position and weather

sailwx.info

Track history (hours):
 
Tides and Currents Weather Stations Pressure Air Temp Water Temp Dewpoint Dewpoint Depression Visibility Wind Speed Wind Dir Waves Ship Positions

Marianne

Last reported at 2014-Dec-19 08:33 UTC. Time now 2014-Dec-19 08:43 UTC.
Position N 51°22' E 004°04'.

Length 97 m; draft 5.5 m.

Type: Ship (hazmat cat B). MMSI: 477560836.

Date/timePositionNaut miles runAvg speedWind from/ knotsBaromVisibWave heightAir tempDewpointWater temp
2014-Dec-19 08:33N 51°22' E 004°04'9 9.3
2014-Dec-19 07:33N 51°21' E 003°49'1010.2
2014-Dec-19 06:34N 51°26' E 003°35'1111.3
2014-Dec-19 05:33N 51°35' E 003°24'11 9.8
2014-Dec-19 04:24N 51°44' E 003°14'5 5.0
2014-Dec-19 03:27N 51°44' E 003°06'1 1.1
2014-Dec-19 02:33N 51°43' E 003°07'1 0.9
2014-Dec-19 01:29N 51°43' E 003°08'2 2.6
2014-Dec-19 00:34N 51°45' E 003°10'4 4.0
2014-Dec-18 23:27N 51°48' E 003°15'3 3.2
2014-Dec-18 22:32N 51°50' E 003°19'12 5.9
2014-Dec-18 20:33N 51°43' E 003°04'2 1.6
2014-Dec-18 19:33N 51°44' E 003°07'2 2.1
2014-Dec-18 18:33N 51°45' E 003°09'3 2.6
2014-Dec-18 17:32N 51°46' E 003°13'2 2.4
2014-Dec-18 16:33N 51°48' E 003°16'2 2.3
2014-Dec-18 15:33N 51°49' E 003°19'2 2.2
2014-Dec-18 14:32N 51°49' E 003°23'0 0.0
2014-Dec-18 09:21N 51°49' E 003°23'0 0.0
2014-Dec-18 08:33N 51°49' E 003°23'0 0.0
2014-Dec-18 07:33N 51°49' E 003°23'0 0.1
2014-Dec-18 06:33N 51°49' E 003°23'0 0.0
2014-Dec-18 05:21N 51°49' E 003°23'0 0.1
2014-Dec-18 03:27N 51°49' E 003°23'0 0.0
2014-Dec-18 02:06N 51°49' E 003°23'0 0.0
2014-Dec-17 21:21N 51°49' E 003°23'0 0.0
2014-Dec-17 20:30N 51°49' E 003°23'0 0.0
2014-Dec-17 19:33N 51°49' E 003°23'0 0.1
2014-Dec-17 18:33N 51°49' E 003°23'0 0.0
2014-Dec-17 11:09N 51°49' E 003°23'0 0.0
2014-Dec-17 08:33N 51°49' E 003°23'0 0.0
2014-Dec-17 07:30N 51°49' E 003°23'0 0.0
2014-Dec-17 06:33N 51°49' E 003°23'0 0.0
2014-Dec-17 05:33N 51°49' E 003°23'0 0.0
2014-Dec-17 04:33N 51°49' E 003°23'0 0.0
2014-Dec-17 03:07N 51°49' E 003°23'1 1.4
2014-Dec-17 02:32N 51°49' E 003°22'1210.1
2014-Dec-17 01:22N 52°01' E 003°20'4811.6
2014-Dec-16 21:14N 52°47' E 003°44'912.2
2014-Dec-16 20:30N 52°54' E 003°53'1212.8
2014-Dec-16 19:32N 53°02' E 004°08'3212.9
2014-Dec-16 17:06N 53°29' E 004°35'713.3
2014-Dec-16 16:32N 53°36' E 004°39'2612.8
2014-Dec-16 14:32N 54°01' E 004°49'1312.4
2014-Dec-16 13:29N 54°14' E 004°54'27911.6
2014-Dec-15 13:25N 58°53' E 005°15'910.2
2014-Dec-15 12:33N 59°02' E 005°18'10 9.6
2014-Dec-15 11:33N 59°10' E 005°29'6 0.4
2014-Dec-14 20:30N 59°16' E 005°30'8 9.0
2014-Dec-14 19:33N 59°07' E 005°29'8 8.2
2014-Dec-14 18:33N 59°03' E 005°15'5 5.3
2014-Dec-14 17:33N 59°03' E 005°05'  
Track history (hours):
 
Tides and Currents Weather Stations Pressure Air Temp Water Temp Dewpoint Dewpoint Depression Visibility Wind Speed Wind Dir Waves Ship Positions

Marianne

Last reported at 2014-Dec-19 08:33 UTC. Time now 2014-Dec-19 08:43 UTC.
Position N 51°22' E 004°04'.

Length 97 m; draft 5.5 m.

Type: Ship (hazmat cat B). MMSI: 477560836.

Date/timePositionNaut miles runAvg speedWind from/ knotsBaromVisibWave heightAir tempDewpointWater temp
2014-Dec-19 08:33N 51°22' E 004°04'9 9.3
2014-Dec-19 07:33N 51°21' E 003°49'1010.2
2014-Dec-19 06:34N 51°26' E 003°35'1111.3
2014-Dec-19 05:33N 51°35' E 003°24'11 9.8
2014-Dec-19 04:24N 51°44' E 003°14'5 5.0
2014-Dec-19 03:27N 51°44' E 003°06'1 1.1
2014-Dec-19 02:33N 51°43' E 003°07'1 0.9
2014-Dec-19 01:29N 51°43' E 003°08'2 2.6
2014-Dec-19 00:34N 51°45' E 003°10'4 4.0
2014-Dec-18 23:27N 51°48' E 003°15'3 3.2
2014-Dec-18 22:32N 51°50' E 003°19'12 5.9
2014-Dec-18 20:33N 51°43' E 003°04'2 1.6
2014-Dec-18 19:33N 51°44' E 003°07'2 2.1
2014-Dec-18 18:33N 51°45' E 003°09'3 2.6
2014-Dec-18 17:32N 51°46' E 003°13'2 2.4
2014-Dec-18 16:33N 51°48' E 003°16'2 2.3
2014-Dec-18 15:33N 51°49' E 003°19'2 2.2
2014-Dec-18 14:32N 51°49' E 003°23'0 0.0
2014-Dec-18 09:21N 51°49' E 003°23'0 0.0
2014-Dec-18 08:33N 51°49' E 003°23'0 0.0
2014-Dec-18 07:33N 51°49' E 003°23'0 0.1
2014-Dec-18 06:33N 51°49' E 003°23'0 0.0
2014-Dec-18 05:21N 51°49' E 003°23'0 0.1
2014-Dec-18 03:27N 51°49' E 003°23'0 0.0
2014-Dec-18 02:06N 51°49' E 003°23'0 0.0
2014-Dec-17 21:21N 51°49' E 003°23'0 0.0
2014-Dec-17 20:30N 51°49' E 003°23'0 0.0
2014-Dec-17 19:33N 51°49' E 003°23'0 0.1
2014-Dec-17 18:33N 51°49' E 003°23'0 0.0
2014-Dec-17 11:09N 51°49' E 003°23'0 0.0
2014-Dec-17 08:33N 51°49' E 003°23'0 0.0
2014-Dec-17 07:30N 51°49' E 003°23'0 0.0
2014-Dec-17 06:33N 51°49' E 003°23'0 0.0
2014-Dec-17 05:33N 51°49' E 003°23'0 0.0
2014-Dec-17 04:33N 51°49' E 003°23'0 0.0
2014-Dec-17 03:07N 51°49' E 003°23'1 1.4
2014-Dec-17 02:32N 51°49' E 003°22'1210.1
2014-Dec-17 01:22N 52°01' E 003°20'4811.6
2014-Dec-16 21:14N 52°47' E 003°44'912.2
2014-Dec-16 20:30N 52°54' E 003°53'1212.8
2014-Dec-16 19:32N 53°02' E 004°08'3212.9
2014-Dec-16 17:06N 53°29' E 004°35'713.3
2014-Dec-16 16:32N 53°36' E 004°39'2612.8
2014-Dec-16 14:32N 54°01' E 004°49'1312.4
2014-Dec-16 13:29N 54°14' E 004°54'27911.6
2014-Dec-15 13:25N 58°53' E 005°15'910.2
2014-Dec-15 12:33N 59°02' E 005°18'10 9.6
2014-Dec-15 11:33N 59°10' E 005°29'6 0.4
2014-Dec-14 20:30N 59°16' E 005°30'8 9.0
2014-Dec-14 19:33N 59°07' E 005°29'8 8.2
2014-Dec-14 18:33N 59°03' E 005°15'5 5.3
2014-Dec-14 17:33N 59°03' E 005°05'  

Dump ship's entire track history